sensor_id;sensor_type;location;lat;lon;timestamp;temperature;humidity
10314;DHT22;5202;49.138;10.090;2022-12-29T00:00:09;6.20;99.90
10314;DHT22;5202;49.138;10.090;2022-12-29T00:02:38;6.20;99.90
10314;DHT22;5202;49.138;10.090;2022-12-29T00:05:07;6.20;99.90
10314;DHT22;5202;49.138;10.090;2022-12-29T00:07:35;6.20;99.90
10314;DHT22;5202;49.138;10.090;2022-12-29T00:10:05;6.20;99.90
10314;DHT22;5202;49.138;10.090;2022-12-29T00:12:34;6.10;99.90
10314;DHT22;5202;49.138;10.090;2022-12-29T00:15:17;6.10;99.90
10314;DHT22;5202;49.138;10.090;2022-12-29T00:18:03;6.20;99.90
10314;DHT22;5202;49.138;10.090;2022-12-29T00:20:34;6.20;99.90
10314;DHT22;5202;49.138;10.090;2022-12-29T00:23:21;6.20;99.90
10314;DHT22;5202;49.138;10.090;2022-12-29T00:26:13;6.20;99.90
10314;DHT22;5202;49.138;10.090;2022-12-29T00:28:59;6.30;99.90
10314;DHT22;5202;49.138;10.090;2022-12-29T00:31:47;6.30;99.90
10314;DHT22;5202;49.138;10.090;2022-12-29T00:34:33;6.30;99.90
10314;DHT22;5202;49.138;10.090;2022-12-29T00:37:19;6.30;99.90
10314;DHT22;5202;49.138;10.090;2022-12-29T00:40:08;6.40;99.90
10314;DHT22;5202;49.138;10.090;2022-12-29T00:42:54;6.30;99.90
10314;DHT22;5202;49.138;10.090;2022-12-29T00:45:40;6.40;99.90
10314;DHT22;5202;49.138;10.090;2022-12-29T00:48:10;6.40;99.90
10314;DHT22;5202;49.138;10.090;2022-12-29T00:50:39;6.40;99.90
10314;DHT22;5202;49.138;10.090;2022-12-29T00:53:07;6.40;99.90
10314;DHT22;5202;49.138;10.090;2022-12-29T00:55:36;6.40;99.90
10314;DHT22;5202;49.138;10.090;2022-12-29T00:58:05;6.40;99.90
10314;DHT22;5202;49.138;10.090;2022-12-29T01:00:33;6.50;99.90
10314;DHT22;5202;49.138;10.090;2022-12-29T01:03:02;6.50;99.90
10314;DHT22;5202;49.138;10.090;2022-12-29T01:05:37;6.50;99.90
10314;DHT22;5202;49.138;10.090;2022-12-29T01:08:05;6.60;99.90
10314;DHT22;5202;49.138;10.090;2022-12-29T01:10:34;6.50;99.90
10314;DHT22;5202;49.138;10.090;2022-12-29T01:13:01;6.50;99.90
10314;DHT22;5202;49.138;10.090;2022-12-29T01:15:29;6.60;99.90
10314;DHT22;5202;49.138;10.090;2022-12-29T01:17:58;6.60;99.90
10314;DHT22;5202;49.138;10.090;2022-12-29T01:20:26;6.60;99.90
10314;DHT22;5202;49.138;10.090;2022-12-29T01:22:57;6.60;99.90
10314;DHT22;5202;49.138;10.090;2022-12-29T01:25:25;6.60;99.90
10314;DHT22;5202;49.138;10.090;2022-12-29T01:27:54;6.60;99.90
10314;DHT22;5202;49.138;10.090;2022-12-29T01:30:22;6.60;99.90
10314;DHT22;5202;49.138;10.090;2022-12-29T01:32:53;6.70;99.90
10314;DHT22;5202;49.138;10.090;2022-12-29T01:35:21;6.60;99.90
10314;DHT22;5202;49.138;10.090;2022-12-29T01:37:50;6.70;99.90
10314;DHT22;5202;49.138;10.090;2022-12-29T01:40:20;6.70;99.90
10314;DHT22;5202;49.138;10.090;2022-12-29T01:42:48;6.70;99.90
10314;DHT22;5202;49.138;10.090;2022-12-29T01:45:17;6.80;99.90
10314;DHT22;5202;49.138;10.090;2022-12-29T01:47:48;6.80;99.90
10314;DHT22;5202;49.138;10.090;2022-12-29T01:50:21;6.80;99.90
10314;DHT22;5202;49.138;10.090;2022-12-29T01:52:55;6.80;99.90
10314;DHT22;5202;49.138;10.090;2022-12-29T01:55:28;6.80;99.90
10314;DHT22;5202;49.138;10.090;2022-12-29T01:58:02;6.90;99.90
10314;DHT22;5202;49.138;10.090;2022-12-29T02:00:32;6.90;99.90
10314;DHT22;5202;49.138;10.090;2022-12-29T02:03:01;6.90;99.90
10314;DHT22;5202;49.138;10.090;2022-12-29T02:05:33;6.90;99.90
10314;DHT22;5202;49.138;10.090;2022-12-29T02:08:05;7.00;99.90
10314;DHT22;5202;49.138;10.090;2022-12-29T02:10:37;7.00;99.90
10314;DHT22;5202;49.138;10.090;2022-12-29T02:13:07;7.00;99.90
10314;DHT22;5202;49.138;10.090;2022-12-29T02:15:45;7.00;99.90
10314;DHT22;5202;49.138;10.090;2022-12-29T02:18:28;7.00;99.90
10314;DHT22;5202;49.138;10.090;2022-12-29T02:21:41;7.00;99.90
10314;DHT22;5202;49.138;10.090;2022-12-29T02:24:49;7.00;99.90
10314;DHT22;5202;49.138;10.090;2022-12-29T02:27:50;6.90;99.90
10314;DHT22;5202;49.138;10.090;2022-12-29T02:30:52;6.90;99.90
10314;DHT22;5202;49.138;10.090;2022-12-29T02:33:40;6.90;99.90
10314;DHT22;5202;49.138;10.090;2022-12-29T02:36:19;6.90;99.90
10314;DHT22;5202;49.138;10.090;2022-12-29T02:38:59;6.90;99.90
10314;DHT22;5202;49.138;10.090;2022-12-29T02:41:33;6.90;99.90
10314;DHT22;5202;49.138;10.090;2022-12-29T02:44:12;6.90;99.90
10314;DHT22;5202;49.138;10.090;2022-12-29T02:46:50;6.90;99.90
10314;DHT22;5202;49.138;10.090;2022-12-29T02:49:26;6.90;99.90
10314;DHT22;5202;49.138;10.090;2022-12-29T02:52:02;7.00;99.90
10314;DHT22;5202;49.138;10.090;2022-12-29T02:54:33;7.00;99.90
10314;DHT22;5202;49.138;10.090;2022-12-29T02:57:12;7.00;99.90
10314;DHT22;5202;49.138;10.090;2022-12-29T02:59:42;7.00;99.90
10314;DHT22;5202;49.138;10.090;2022-12-29T03:02:29;7.10;99.90
10314;DHT22;5202;49.138;10.090;2022-12-29T03:05:32;7.10;99.90
10314;DHT22;5202;49.138;10.090;2022-12-29T03:08:19;7.10;99.90
10314;DHT22;5202;49.138;10.090;2022-12-29T03:10:58;7.10;99.90
10314;DHT22;5202;49.138;10.090;2022-12-29T03:13:32;7.10;99.90
10314;DHT22;5202;49.138;10.090;2022-12-29T03:16:23;7.10;99.90
10314;DHT22;5202;49.138;10.090;2022-12-29T03:19:02;7.10;99.90
10314;DHT22;5202;49.138;10.090;2022-12-29T03:21:37;7.10;99.90
10314;DHT22;5202;49.138;10.090;2022-12-29T03:24:27;7.10;99.90
10314;DHT22;5202;49.138;10.090;2022-12-29T03:26:59;7.10;99.90
10314;DHT22;5202;49.138;10.090;2022-12-29T03:29:42;7.10;99.90
10314;DHT22;5202;49.138;10.090;2022-12-29T03:32:15;7.20;99.90
10314;DHT22;5202;49.138;10.090;2022-12-29T03:34:46;7.20;99.90
10314;DHT22;5202;49.138;10.090;2022-12-29T03:37:20;7.20;99.90
10314;DHT22;5202;49.138;10.090;2022-12-29T03:39:49;7.20;99.90
10314;DHT22;5202;49.138;10.090;2022-12-29T03:42:21;7.20;99.90
10314;DHT22;5202;49.138;10.090;2022-12-29T03:44:55;7.20;99.90
10314;DHT22;5202;49.138;10.090;2022-12-29T03:47:24;7.20;99.90
10314;DHT22;5202;49.138;10.090;2022-12-29T03:49:54;7.20;99.90
10314;DHT22;5202;49.138;10.090;2022-12-29T03:52:23;7.20;99.90
10314;DHT22;5202;49.138;10.090;2022-12-29T03:54:52;7.20;99.90
10314;DHT22;5202;49.138;10.090;2022-12-29T03:57:20;7.20;99.90
10314;DHT22;5202;49.138;10.090;2022-12-29T04:00:10;7.20;99.90
10314;DHT22;5202;49.138;10.090;2022-12-29T04:02:47;7.20;99.90
10314;DHT22;5202;49.138;10.090;2022-12-29T04:05:24;7.20;99.90
10314;DHT22;5202;49.138;10.090;2022-12-29T04:07:54;7.30;99.90
10314;DHT22;5202;49.138;10.090;2022-12-29T04:10:26;7.30;99.90
10314;DHT22;5202;49.138;10.090;2022-12-29T04:12:58;7.30;99.90
10314;DHT22;5202;49.138;10.090;2022-12-29T04:15:26;7.30;99.90
10314;DHT22;5202;49.138;10.090;2022-12-29T04:17:54;7.30;99.90
10314;DHT22;5202;49.138;10.090;2022-12-29T04:20:24;7.40;99.90
10314;DHT22;5202;49.138;10.090;2022-12-29T04:23:10;7.40;99.90
10314;DHT22;5202;49.138;10.090;2022-12-29T04:25:39;7.40;99.90
10314;DHT22;5202;49.138;10.090;2022-12-29T04:28:09;7.40;99.90
10314;DHT22;5202;49.138;10.090;2022-12-29T04:31:03;7.40;99.90
10314;DHT22;5202;49.138;10.090;2022-12-29T04:33:35;7.40;99.90
10314;DHT22;5202;49.138;10.090;2022-12-29T04:36:05;7.40;99.90
10314;DHT22;5202;49.138;10.090;2022-12-29T04:38:34;7.40;99.90
10314;DHT22;5202;49.138;10.090;2022-12-29T04:41:04;7.40;99.90
10314;DHT22;5202;49.138;10.090;2022-12-29T04:43:35;7.40;99.90
10314;DHT22;5202;49.138;10.090;2022-12-29T04:46:21;7.40;99.90
10314;DHT22;5202;49.138;10.090;2022-12-29T04:48:58;7.40;99.90
10314;DHT22;5202;49.138;10.090;2022-12-29T04:51:49;7.40;99.90
10314;DHT22;5202;49.138;10.090;2022-12-29T04:54:18;7.40;99.90
10314;DHT22;5202;49.138;10.090;2022-12-29T04:56:54;7.40;99.90
10314;DHT22;5202;49.138;10.090;2022-12-29T04:59:23;7.40;99.90
10314;DHT22;5202;49.138;10.090;2022-12-29T05:01:56;7.50;99.90
10314;DHT22;5202;49.138;10.090;2022-12-29T05:04:35;7.50;99.90
10314;DHT22;5202;49.138;10.090;2022-12-29T05:07:05;7.50;99.90
10314;DHT22;5202;49.138;10.090;2022-12-29T05:09:33;7.50;99.90
10314;DHT22;5202;49.138;10.090;2022-12-29T05:12:01;7.60;99.90
10314;DHT22;5202;49.138;10.090;2022-12-29T05:14:32;7.60;99.90
10314;DHT22;5202;49.138;10.090;2022-12-29T05:17:00;7.60;99.90
10314;DHT22;5202;49.138;10.090;2022-12-29T05:19:28;7.70;99.90
10314;DHT22;5202;49.138;10.090;2022-12-29T05:21:58;7.80;99.90
10314;DHT22;5202;49.138;10.090;2022-12-29T05:24:28;7.90;99.90
10314;DHT22;5202;49.138;10.090;2022-12-29T05:26:57;8.00;99.90
10314;DHT22;5202;49.138;10.090;2022-12-29T05:29:57;8.20;99.90
10314;DHT22;5202;49.138;10.090;2022-12-29T05:32:26;8.30;99.90
10314;DHT22;5202;49.138;10.090;2022-12-29T05:34:54;8.40;99.90
10314;DHT22;5202;49.138;10.090;2022-12-29T05:37:23;8.40;99.90
10314;DHT22;5202;49.138;10.090;2022-12-29T05:39:53;8.40;99.90
10314;DHT22;5202;49.138;10.090;2022-12-29T05:42:22;8.50;99.90
10314;DHT22;5202;49.138;10.090;2022-12-29T05:45:25;8.50;99.90
10314;DHT22;5202;49.138;10.090;2022-12-29T05:48:02;8.40;99.90
10314;DHT22;5202;49.138;10.090;2022-12-29T05:51:02;8.50;99.90
10314;DHT22;5202;49.138;10.090;2022-12-29T05:53:45;8.50;99.90
10314;DHT22;5202;49.138;10.090;2022-12-29T05:56:16;8.50;99.90
10314;DHT22;5202;49.138;10.090;2022-12-29T05:58:51;8.50;99.90
10314;DHT22;5202;49.138;10.090;2022-12-29T06:01:21;8.50;99.90
10314;DHT22;5202;49.138;10.090;2022-12-29T06:03:49;8.40;99.90
10314;DHT22;5202;49.138;10.090;2022-12-29T06:06:19;8.50;99.90
10314;DHT22;5202;49.138;10.090;2022-12-29T06:08:48;8.60;99.90
10314;DHT22;5202;49.138;10.090;2022-12-29T06:11:19;8.60;99.90
10314;DHT22;5202;49.138;10.090;2022-12-29T06:13:51;8.60;99.90
10314;DHT22;5202;49.138;10.090;2022-12-29T06:16:20;8.60;99.90
10314;DHT22;5202;49.138;10.090;2022-12-29T06:18:52;8.70;99.90
10314;DHT22;5202;49.138;10.090;2022-12-29T06:21:21;8.70;99.90
10314;DHT22;5202;49.138;10.090;2022-12-29T06:23:49;8.80;99.90
10314;DHT22;5202;49.138;10.090;2022-12-29T06:26:19;9.00;99.90
10314;DHT22;5202;49.138;10.090;2022-12-29T06:28:47;9.10;99.90
10314;DHT22;5202;49.138;10.090;2022-12-29T06:31:16;9.20;99.90
10314;DHT22;5202;49.138;10.090;2022-12-29T06:33:45;9.20;99.90
10314;DHT22;5202;49.138;10.090;2022-12-29T06:36:16;9.30;99.90
10314;DHT22;5202;49.138;10.090;2022-12-29T06:38:44;9.30;99.90
10314;DHT22;5202;49.138;10.090;2022-12-29T06:41:12;9.40;99.90
10314;DHT22;5202;49.138;10.090;2022-12-29T06:44:00;9.30;99.90
10314;DHT22;5202;49.138;10.090;2022-12-29T06:46:44;9.30;99.90
10314;DHT22;5202;49.138;10.090;2022-12-29T06:49:12;9.20;99.90
10314;DHT22;5202;49.138;10.090;2022-12-29T06:51:41;9.20;99.90
10314;DHT22;5202;49.138;10.090;2022-12-29T06:54:09;9.00;99.90
10314;DHT22;5202;49.138;10.090;2022-12-29T06:56:37;8.90;99.90
10314;DHT22;5202;49.138;10.090;2022-12-29T06:59:07;8.60;99.90
10314;DHT22;5202;49.138;10.090;2022-12-29T07:01:36;8.40;99.90
10314;DHT22;5202;49.138;10.090;2022-12-29T07:04:05;8.30;99.90
10314;DHT22;5202;49.138;10.090;2022-12-29T07:06:33;8.10;99.90
10314;DHT22;5202;49.138;10.090;2022-12-29T07:09:01;8.10;99.90
10314;DHT22;5202;49.138;10.090;2022-12-29T07:11:30;8.00;99.90
10314;DHT22;5202;49.138;10.090;2022-12-29T07:13:58;7.90;99.90
10314;DHT22;5202;49.138;10.090;2022-12-29T07:16:31;7.90;99.90
10314;DHT22;5202;49.138;10.090;2022-12-29T07:19:01;7.80;99.90
10314;DHT22;5202;49.138;10.090;2022-12-29T07:21:29;7.80;99.90
10314;DHT22;5202;49.138;10.090;2022-12-29T07:23:57;7.80;99.90
10314;DHT22;5202;49.138;10.090;2022-12-29T07:26:26;7.70;99.90
10314;DHT22;5202;49.138;10.090;2022-12-29T07:29:02;7.60;99.90
10314;DHT22;5202;49.138;10.090;2022-12-29T07:31:31;7.50;99.90
10314;DHT22;5202;49.138;10.090;2022-12-29T07:34:00;7.50;99.90
10314;DHT22;5202;49.138;10.090;2022-12-29T07:36:28;7.40;99.90
10314;DHT22;5202;49.138;10.090;2022-12-29T07:39:00;7.40;99.90
10314;DHT22;5202;49.138;10.090;2022-12-29T07:41:28;7.30;99.90
10314;DHT22;5202;49.138;10.090;2022-12-29T07:43:58;7.30;99.90
10314;DHT22;5202;49.138;10.090;2022-12-29T07:46:36;7.40;99.90
10314;DHT22;5202;49.138;10.090;2022-12-29T07:49:22;7.30;99.90
10314;DHT22;5202;49.138;10.090;2022-12-29T07:51:50;7.20;99.90
10314;DHT22;5202;49.138;10.090;2022-12-29T07:54:19;7.20;99.90
10314;DHT22;5202;49.138;10.090;2022-12-29T07:56:52;7.20;99.90
10314;DHT22;5202;49.138;10.090;2022-12-29T07:59:21;7.20;99.90
10314;DHT22;5202;49.138;10.090;2022-12-29T08:01:51;7.20;99.90
10314;DHT22;5202;49.138;10.090;2022-12-29T08:04:20;7.20;99.90
10314;DHT22;5202;49.138;10.090;2022-12-29T08:06:50;7.20;99.90
10314;DHT22;5202;49.138;10.090;2022-12-29T08:09:18;7.20;99.90
10314;DHT22;5202;49.138;10.090;2022-12-29T08:11:50;7.20;99.90
10314;DHT22;5202;49.138;10.090;2022-12-29T08:14:18;7.20;99.90
10314;DHT22;5202;49.138;10.090;2022-12-29T08:16:47;7.20;99.90
10314;DHT22;5202;49.138;10.090;2022-12-29T08:19:17;7.30;99.90
10314;DHT22;5202;49.138;10.090;2022-12-29T08:21:45;7.30;99.90
10314;DHT22;5202;49.138;10.090;2022-12-29T08:24:13;7.30;99.90
10314;DHT22;5202;49.138;10.090;2022-12-29T08:26:41;7.30;99.90
10314;DHT22;5202;49.138;10.090;2022-12-29T08:29:09;7.40;99.90
10314;DHT22;5202;49.138;10.090;2022-12-29T08:31:38;7.40;99.90
10314;DHT22;5202;49.138;10.090;2022-12-29T08:34:06;7.30;99.90
10314;DHT22;5202;49.138;10.090;2022-12-29T08:36:36;7.30;99.90
10314;DHT22;5202;49.138;10.090;2022-12-29T08:39:04;7.40;99.90
10314;DHT22;5202;49.138;10.090;2022-12-29T08:41:32;7.40;99.90
10314;DHT22;5202;49.138;10.090;2022-12-29T08:44:00;7.40;99.90
10314;DHT22;5202;49.138;10.090;2022-12-29T08:46:29;7.40;99.90
10314;DHT22;5202;49.138;10.090;2022-12-29T08:48:57;7.50;99.90
10314;DHT22;5202;49.138;10.090;2022-12-29T08:51:25;7.50;99.90
10314;DHT22;5202;49.138;10.090;2022-12-29T08:53:55;7.50;99.90
10314;DHT22;5202;49.138;10.090;2022-12-29T08:56:23;7.50;99.90
10314;DHT22;5202;49.138;10.090;2022-12-29T08:58:55;7.50;99.90
10314;DHT22;5202;49.138;10.090;2022-12-29T09:01:24;7.60;99.90
10314;DHT22;5202;49.138;10.090;2022-12-29T09:03:57;7.60;99.90
10314;DHT22;5202;49.138;10.090;2022-12-29T09:06:47;7.60;99.90
10314;DHT22;5202;49.138;10.090;2022-12-29T09:09:16;7.60;99.90
10314;DHT22;5202;49.138;10.090;2022-12-29T09:11:45;7.60;99.90
10314;DHT22;5202;49.138;10.090;2022-12-29T09:14:13;7.60;99.90
10314;DHT22;5202;49.138;10.090;2022-12-29T09:16:42;7.70;99.90
10314;DHT22;5202;49.138;10.090;2022-12-29T09:19:28;7.70;99.90
10314;DHT22;5202;49.138;10.090;2022-12-29T09:21:56;7.70;99.90
10314;DHT22;5202;49.138;10.090;2022-12-29T09:24:25;7.70;99.90
10314;DHT22;5202;49.138;10.090;2022-12-29T09:26:54;7.80;99.90
10314;DHT22;5202;49.138;10.090;2022-12-29T09:29:22;7.80;99.90
10314;DHT22;5202;49.138;10.090;2022-12-29T09:31:50;7.80;99.90
10314;DHT22;5202;49.138;10.090;2022-12-29T09:34:18;7.90;99.90
10314;DHT22;5202;49.138;10.090;2022-12-29T09:36:47;7.90;99.90
10314;DHT22;5202;49.138;10.090;2022-12-29T09:39:15;7.90;99.90
10314;DHT22;5202;49.138;10.090;2022-12-29T09:41:49;8.00;99.90
10314;DHT22;5202;49.138;10.090;2022-12-29T09:44:23;8.00;99.90
10314;DHT22;5202;49.138;10.090;2022-12-29T09:46:55;8.00;99.90
10314;DHT22;5202;49.138;10.090;2022-12-29T09:49:28;8.10;99.90
10314;DHT22;5202;49.138;10.090;2022-12-29T09:52:05;8.10;99.90
10314;DHT22;5202;49.138;10.090;2022-12-29T09:54:42;8.10;99.90
10314;DHT22;5202;49.138;10.090;2022-12-29T09:57:29;8.10;99.90
10314;DHT22;5202;49.138;10.090;2022-12-29T10:00:04;8.10;99.90
10314;DHT22;5202;49.138;10.090;2022-12-29T10:02:42;8.10;99.90
10314;DHT22;5202;49.138;10.090;2022-12-29T10:05:26;8.10;99.90
10314;DHT22;5202;49.138;10.090;2022-12-29T10:08:05;8.10;99.90
10314;DHT22;5202;49.138;10.090;2022-12-29T10:10:48;8.10;99.90
10314;DHT22;5202;49.138;10.090;2022-12-29T10:13:32;8.10;99.90
10314;DHT22;5202;49.138;10.090;2022-12-29T10:16:11;8.10;99.90
10314;DHT22;5202;49.138;10.090;2022-12-29T10:19:01;8.20;99.90
10314;DHT22;5202;49.138;10.090;2022-12-29T10:21:48;8.20;99.90
10314;DHT22;5202;49.138;10.090;2022-12-29T10:24:25;8.30;99.90
10314;DHT22;5202;49.138;10.090;2022-12-29T10:26:56;8.30;99.90
10314;DHT22;5202;49.138;10.090;2022-12-29T10:29:32;8.30;99.90
10314;DHT22;5202;49.138;10.090;2022-12-29T10:32:06;8.40;99.90
10314;DHT22;5202;49.138;10.090;2022-12-29T10:34:51;8.50;99.90
10314;DHT22;5202;49.138;10.090;2022-12-29T10:37:29;8.60;99.90
10314;DHT22;5202;49.138;10.090;2022-12-29T10:40:09;8.70;99.90
10314;DHT22;5202;49.138;10.090;2022-12-29T10:42:46;8.80;99.90
10314;DHT22;5202;49.138;10.090;2022-12-29T10:45:19;8.90;99.90
10314;DHT22;5202;49.138;10.090;2022-12-29T10:47:53;9.00;99.90
10314;DHT22;5202;49.138;10.090;2022-12-29T10:50:25;9.10;99.90
10314;DHT22;5202;49.138;10.090;2022-12-29T10:52:58;9.20;99.90
10314;DHT22;5202;49.138;10.090;2022-12-29T10:55:31;9.30;99.90
10314;DHT22;5202;49.138;10.090;2022-12-29T10:58:03;9.30;99.90
10314;DHT22;5202;49.138;10.090;2022-12-29T11:00:34;9.40;99.90
10314;DHT22;5202;49.138;10.090;2022-12-29T11:03:27;9.50;99.90
10314;DHT22;5202;49.138;10.090;2022-12-29T11:06:11;9.70;99.90
10314;DHT22;5202;49.138;10.090;2022-12-29T11:08:46;9.80;99.90
10314;DHT22;5202;49.138;10.090;2022-12-29T11:11:25;9.90;99.90
10314;DHT22;5202;49.138;10.090;2022-12-29T11:13:59;10.00;99.90
10314;DHT22;5202;49.138;10.090;2022-12-29T11:16:34;10.10;99.90
10314;DHT22;5202;49.138;10.090;2022-12-29T11:19:02;10.20;99.90
10314;DHT22;5202;49.138;10.090;2022-12-29T11:21:33;10.30;99.90
10314;DHT22;5202;49.138;10.090;2022-12-29T11:24:19;10.30;99.90
10314;DHT22;5202;49.138;10.090;2022-12-29T11:26:50;10.30;99.90
10314;DHT22;5202;49.138;10.090;2022-12-29T11:29:29;10.30;99.90
10314;DHT22;5202;49.138;10.090;2022-12-29T11:32:12;10.30;99.90
10314;DHT22;5202;49.138;10.090;2022-12-29T11:34:53;10.30;99.90
10314;DHT22;5202;49.138;10.090;2022-12-29T11:37:26;10.20;99.90
10314;DHT22;5202;49.138;10.090;2022-12-29T11:39:58;10.20;99.90
10314;DHT22;5202;49.138;10.090;2022-12-29T11:42:35;10.10;99.90
10314;DHT22;5202;49.138;10.090;2022-12-29T11:45:10;10.20;99.90
10314;DHT22;5202;49.138;10.090;2022-12-29T11:47:46;10.10;99.90
10314;DHT22;5202;49.138;10.090;2022-12-29T11:50:18;10.20;99.90
10314;DHT22;5202;49.138;10.090;2022-12-29T11:52:49;10.30;99.90
10314;DHT22;5202;49.138;10.090;2022-12-29T11:55:21;10.30;99.90
10314;DHT22;5202;49.138;10.090;2022-12-29T11:57:54;10.30;99.90
10314;DHT22;5202;49.138;10.090;2022-12-29T12:00:24;10.30;99.90
10314;DHT22;5202;49.138;10.090;2022-12-29T12:02:57;10.40;99.90
10314;DHT22;5202;49.138;10.090;2022-12-29T12:05:36;10.40;99.90
10314;DHT22;5202;49.138;10.090;2022-12-29T12:08:11;10.40;99.90
10314;DHT22;5202;49.138;10.090;2022-12-29T12:10:51;10.40;99.90
10314;DHT22;5202;49.138;10.090;2022-12-29T12:13:27;10.40;99.90
10314;DHT22;5202;49.138;10.090;2022-12-29T12:16:04;10.40;99.90
10314;DHT22;5202;49.138;10.090;2022-12-29T12:18:41;10.40;99.90
10314;DHT22;5202;49.138;10.090;2022-12-29T12:21:18;10.50;99.90
10314;DHT22;5202;49.138;10.090;2022-12-29T12:24:10;10.50;99.90
10314;DHT22;5202;49.138;10.090;2022-12-29T12:26:56;10.50;99.90
10314;DHT22;5202;49.138;10.090;2022-12-29T12:29:34;10.50;99.90
10314;DHT22;5202;49.138;10.090;2022-12-29T12:32:11;10.50;99.90
10314;DHT22;5202;49.138;10.090;2022-12-29T12:34:45;10.50;99.90
10314;DHT22;5202;49.138;10.090;2022-12-29T12:37:35;10.50;99.90
10314;DHT22;5202;49.138;10.090;2022-12-29T12:40:40;10.60;99.90
10314;DHT22;5202;49.138;10.090;2022-12-29T12:43:32;10.70;99.90
10314;DHT22;5202;49.138;10.090;2022-12-29T12:46:19;10.70;99.90
10314;DHT22;5202;49.138;10.090;2022-12-29T12:49:20;10.80;99.90
10314;DHT22;5202;49.138;10.090;2022-12-29T12:52:02;10.80;99.90
10314;DHT22;5202;49.138;10.090;2022-12-29T12:54:42;10.70;99.90
10314;DHT22;5202;49.138;10.090;2022-12-29T12:57:27;10.60;99.90
10314;DHT22;5202;49.138;10.090;2022-12-29T13:00:02;10.40;99.90
10314;DHT22;5202;49.138;10.090;2022-12-29T13:02:43;10.30;99.90
10314;DHT22;5202;49.138;10.090;2022-12-29T13:05:55;10.20;99.90
10314;DHT22;5202;49.138;10.090;2022-12-29T13:08:49;10.20;99.90
10314;DHT22;5202;49.138;10.090;2022-12-29T13:11:31;10.30;99.90
10314;DHT22;5202;49.138;10.090;2022-12-29T13:14:16;10.20;99.90
10314;DHT22;5202;49.138;10.090;2022-12-29T13:16:51;10.30;99.90
10314;DHT22;5202;49.138;10.090;2022-12-29T13:19:27;10.30;99.90
10314;DHT22;5202;49.138;10.090;2022-12-29T13:22:04;10.20;99.90
10314;DHT22;5202;49.138;10.090;2022-12-29T13:24:47;10.10;99.90
10314;DHT22;5202;49.138;10.090;2022-12-29T13:27:23;10.10;99.90
10314;DHT22;5202;49.138;10.090;2022-12-29T13:30:05;10.00;99.90
10314;DHT22;5202;49.138;10.090;2022-12-29T13:32:51;10.00;99.90
10314;DHT22;5202;49.138;10.090;2022-12-29T13:35:37;10.00;99.90
10314;DHT22;5202;49.138;10.090;2022-12-29T13:38:18;10.00;99.90
10314;DHT22;5202;49.138;10.090;2022-12-29T13:40:55;9.90;99.90
10314;DHT22;5202;49.138;10.090;2022-12-29T13:43:25;9.90;99.90
10314;DHT22;5202;49.138;10.090;2022-12-29T13:45:59;9.90;99.90
10314;DHT22;5202;49.138;10.090;2022-12-29T13:48:37;9.90;99.90
10314;DHT22;5202;49.138;10.090;2022-12-29T13:51:09;9.90;99.90
10314;DHT22;5202;49.138;10.090;2022-12-29T13:53:49;9.90;99.90
10314;DHT22;5202;49.138;10.090;2022-12-29T13:56:37;9.90;99.90
10314;DHT22;5202;49.138;10.090;2022-12-29T13:59:14;9.90;99.90
10314;DHT22;5202;49.138;10.090;2022-12-29T14:01:53;9.90;99.90
10314;DHT22;5202;49.138;10.090;2022-12-29T14:04:26;9.80;99.90
10314;DHT22;5202;49.138;10.090;2022-12-29T14:07:02;9.80;99.90
10314;DHT22;5202;49.138;10.090;2022-12-29T14:09:41;9.80;99.90
10314;DHT22;5202;49.138;10.090;2022-12-29T14:12:28;9.80;99.90
10314;DHT22;5202;49.138;10.090;2022-12-29T14:15:13;9.70;99.90
10314;DHT22;5202;49.138;10.090;2022-12-29T14:18:03;9.70;99.90
10314;DHT22;5202;49.138;10.090;2022-12-29T14:20:34;9.70;99.90
10314;DHT22;5202;49.138;10.090;2022-12-29T14:23:25;9.60;99.90
10314;DHT22;5202;49.138;10.090;2022-12-29T14:26:14;9.60;99.90
10314;DHT22;5202;49.138;10.090;2022-12-29T14:28:47;9.60;99.90
10314;DHT22;5202;49.138;10.090;2022-12-29T14:31:34;9.60;99.90
10314;DHT22;5202;49.138;10.090;2022-12-29T14:34:29;9.60;99.90
10314;DHT22;5202;49.138;10.090;2022-12-29T14:37:24;9.60;99.90
10314;DHT22;5202;49.138;10.090;2022-12-29T14:40:04;9.60;99.90
10314;DHT22;5202;49.138;10.090;2022-12-29T14:42:35;9.60;99.90
10314;DHT22;5202;49.138;10.090;2022-12-29T14:45:06;9.60;99.90
10314;DHT22;5202;49.138;10.090;2022-12-29T14:47:38;9.60;99.90
10314;DHT22;5202;49.138;10.090;2022-12-29T14:50:14;9.60;99.90
10314;DHT22;5202;49.138;10.090;2022-12-29T14:52:46;9.60;99.90
10314;DHT22;5202;49.138;10.090;2022-12-29T14:55:38;9.70;99.90
10314;DHT22;5202;49.138;10.090;2022-12-29T14:58:15;9.70;99.90
10314;DHT22;5202;49.138;10.090;2022-12-29T15:00:48;9.80;99.90
10314;DHT22;5202;49.138;10.090;2022-12-29T15:03:19;9.80;99.90
10314;DHT22;5202;49.138;10.090;2022-12-29T15:05:58;9.70;99.90
10314;DHT22;5202;49.138;10.090;2022-12-29T15:08:38;9.70;99.90
10314;DHT22;5202;49.138;10.090;2022-12-29T15:11:12;9.70;99.90
10314;DHT22;5202;49.138;10.090;2022-12-29T15:13:43;9.60;99.90
10314;DHT22;5202;49.138;10.090;2022-12-29T15:16:23;9.60;99.90
10314;DHT22;5202;49.138;10.090;2022-12-29T15:18:53;9.50;99.90
10314;DHT22;5202;49.138;10.090;2022-12-29T15:21:24;9.50;99.90
10314;DHT22;5202;49.138;10.090;2022-12-29T15:23:56;9.50;99.90
10314;DHT22;5202;49.138;10.090;2022-12-29T15:26:36;9.40;99.90
10314;DHT22;5202;49.138;10.090;2022-12-29T15:29:05;9.40;99.90
10314;DHT22;5202;49.138;10.090;2022-12-29T15:31:46;9.40;99.90
10314;DHT22;5202;49.138;10.090;2022-12-29T15:34:20;9.30;99.90
10314;DHT22;5202;49.138;10.090;2022-12-29T15:36:50;9.40;99.90
10314;DHT22;5202;49.138;10.090;2022-12-29T15:39:19;9.30;99.90
10314;DHT22;5202;49.138;10.090;2022-12-29T15:41:53;9.30;99.90
10314;DHT22;5202;49.138;10.090;2022-12-29T15:44:34;9.30;99.90
10314;DHT22;5202;49.138;10.090;2022-12-29T15:47:12;9.30;99.90
10314;DHT22;5202;49.138;10.090;2022-12-29T15:49:44;9.30;99.90
10314;DHT22;5202;49.138;10.090;2022-12-29T15:52:17;9.30;99.90
10314;DHT22;5202;49.138;10.090;2022-12-29T15:54:47;9.30;99.90
10314;DHT22;5202;49.138;10.090;2022-12-29T15:57:21;9.30;99.90
10314;DHT22;5202;49.138;10.090;2022-12-29T15:59:51;9.30;99.90
10314;DHT22;5202;49.138;10.090;2022-12-29T16:02:22;9.30;99.90
10314;DHT22;5202;49.138;10.090;2022-12-29T16:04:51;9.30;99.90
10314;DHT22;5202;49.138;10.090;2022-12-29T16:07:52;9.30;99.90
10314;DHT22;5202;49.138;10.090;2022-12-29T16:10:26;9.30;99.90
10314;DHT22;5202;49.138;10.090;2022-12-29T16:13:03;9.30;99.90
10314;DHT22;5202;49.138;10.090;2022-12-29T16:15:33;9.30;99.90
10314;DHT22;5202;49.138;10.090;2022-12-29T16:18:03;9.30;99.90
10314;DHT22;5202;49.138;10.090;2022-12-29T16:20:37;9.30;99.90
10314;DHT22;5202;49.138;10.090;2022-12-29T16:23:16;9.40;99.90
10314;DHT22;5202;49.138;10.090;2022-12-29T16:25:46;9.30;99.90
10314;DHT22;5202;49.138;10.090;2022-12-29T16:28:18;9.40;99.90
10314;DHT22;5202;49.138;10.090;2022-12-29T16:30:57;9.40;99.90
10314;DHT22;5202;49.138;10.090;2022-12-29T16:33:43;9.40;99.90
10314;DHT22;5202;49.138;10.090;2022-12-29T16:36:28;9.20;99.90